createdAt,value
2023-02-28T00:01:26.743Z,26.05
2023-02-28T00:04:38.922Z,25.38
2023-02-28T00:07:51.619Z,23.50
2023-02-28T00:11:07.826Z,23.68
2023-02-28T00:14:20.088Z,24.70
2023-02-28T00:17:32.009Z,27.53
2023-02-28T00:20:44.136Z,28.63
2023-02-28T00:23:56.456Z,23.43
2023-02-28T00:27:08.869Z,32.68
2023-02-28T00:30:22.535Z,23.88
2023-02-28T00:33:34.957Z,25.78
2023-02-28T00:36:48.440Z,26.43
2023-02-28T00:40:01.053Z,27.73
2023-02-28T00:43:14.021Z,24.40
2023-02-28T00:46:26.532Z,27.53
2023-02-28T00:49:39.330Z,25.83
2023-02-28T00:52:51.734Z,26.58
2023-02-28T00:56:04.335Z,27.10
2023-02-28T00:59:17.383Z,28.80
2023-02-28T01:02:30.920Z,32.05
2023-02-28T01:05:43.267Z,29.88
2023-02-28T01:08:55.447Z,26.45
2023-02-28T01:12:09.272Z,28.70
2023-02-28T01:15:21.780Z,29.40
2023-02-28T01:18:34.157Z,28.65
2023-02-28T01:21:46.233Z,28.15
2023-02-28T01:24:59.008Z,26.10
2023-02-28T01:28:12.077Z,26.90
2023-02-28T01:31:24.857Z,25.28
2023-02-28T01:34:36.852Z,26.00
2023-02-28T01:37:49.592Z,27.50
2023-02-28T01:41:02.658Z,31.55
2023-02-28T01:44:46.231Z,28.35
2023-02-28T01:48:03.178Z,26.58
2023-02-28T01:51:20.557Z,28.20
2023-02-28T01:54:36.438Z,26.35
2023-02-28T01:57:55.505Z,26.43
2023-02-28T02:01:08.504Z,23.85
2023-02-28T02:04:21.554Z,27.58
2023-02-28T02:07:37.992Z,28.15
2023-02-28T02:10:55.338Z,28.93
2023-02-28T02:14:40.839Z,26.78
2023-02-28T02:17:57.389Z,23.68
2023-02-28T02:21:51.921Z,28.43
2023-02-28T02:25:26.535Z,29.68
2023-02-28T02:29:31.782Z,27.45
2023-02-28T02:33:18.030Z,26.30
2023-02-28T02:36:35.451Z,29.78
2023-02-28T02:39:56.135Z,30.13
2023-02-28T02:43:13.214Z,29.00
2023-02-28T02:46:31.902Z,29.13
2023-02-28T02:49:50.750Z,28.25
2023-02-28T02:56:18.601Z,30.93
2023-02-28T02:59:32.857Z,28.60
2023-02-28T03:02:48.457Z,27.73
2023-02-28T03:06:05.248Z,32.95
2023-02-28T03:09:17.710Z,27.35
2023-02-28T03:12:36.630Z,28.28
2023-02-28T03:16:06.553Z,27.75
2023-02-28T03:19:34.776Z,31.88
2023-02-28T03:22:59.155Z,28.05
2023-02-28T03:26:16.925Z,29.50
2023-02-28T03:29:34.065Z,31.63
2023-02-28T03:32:51.292Z,30.58
2023-02-28T03:36:07.355Z,29.60
2023-02-28T03:39:25.251Z,41.93
2023-02-28T03:42:41.232Z,28.33
2023-02-28T03:45:55.941Z,29.87
2023-02-28T03:49:14.016Z,29.43
2023-02-28T03:52:30.934Z,31.75
2023-02-28T03:55:48.523Z,28.90
2023-02-28T03:59:06.349Z,28.95
2023-02-28T04:02:19.701Z,33.40
2023-02-28T04:05:33.824Z,27.85
2023-02-28T04:08:46.180Z,30.58
2023-02-28T04:12:00.335Z,30.55
2023-02-28T04:15:15.636Z,30.85
2023-02-28T04:18:27.600Z,31.08
2023-02-28T04:21:43.616Z,35.75
2023-02-28T04:24:55.625Z,31.97
2023-02-28T04:28:07.771Z,31.33
2023-02-28T04:31:19.638Z,33.43
2023-02-28T04:34:36.697Z,35.25
2023-02-28T04:37:48.900Z,31.65
2023-02-28T04:41:06.834Z,31.83
2023-02-28T04:44:19.691Z,37.25
2023-02-28T04:47:31.809Z,28.88
2023-02-28T04:50:47.340Z,36.03
2023-02-28T04:53:59.786Z,31.18
2023-02-28T04:57:11.864Z,32.35
2023-02-28T05:00:27.040Z,35.23
2023-02-28T05:03:39.316Z,33.68
2023-02-28T05:06:54.601Z,34.60
2023-02-28T05:10:07.048Z,33.10
2023-02-28T05:13:20.464Z,32.83
2023-02-28T05:16:32.728Z,31.88
2023-02-28T05:19:45.180Z,38.95
2023-02-28T05:22:58.728Z,33.08
2023-02-28T05:26:11.203Z,31.15
2023-02-28T05:29:23.132Z,32.13
2023-02-28T05:32:35.119Z,34.08
2023-02-28T05:35:52.450Z,33.83
2023-02-28T05:39:04.564Z,33.15
2023-02-28T05:42:16.826Z,31.38
2023-02-28T05:45:29.469Z,31.45
2023-02-28T05:48:44.216Z,29.28
2023-02-28T05:51:56.517Z,34.05
2023-02-28T05:55:10.182Z,36.10
2023-02-28T05:58:22.112Z,33.03
2023-02-28T06:01:42.858Z,31.40
2023-02-28T06:04:55.641Z,38.08
2023-02-28T06:08:08.366Z,31.90
2023-02-28T06:11:20.944Z,30.80
2023-02-28T06:14:38.968Z,37.08
2023-02-28T06:17:52.257Z,35.03
2023-02-28T06:21:06.869Z,33.85
2023-02-28T06:24:24.471Z,38.55
2023-02-28T06:46:12.843Z,36.48
2023-02-28T06:49:25.784Z,40.40
2023-02-28T06:52:38.310Z,44.35
2023-02-28T06:58:53.956Z,33.53
2023-02-28T07:02:07.484Z,40.40
2023-02-28T07:08:20.461Z,66.25
2023-02-28T07:11:34.764Z,63.83
2023-02-28T07:14:47.546Z,47.80
2023-02-28T07:21:00.224Z,32.48
2023-02-28T07:24:15.633Z,36.20
2023-02-28T07:27:28.856Z,36.50
2023-02-28T07:33:41.827Z,41.15
2023-02-28T07:36:54.611Z,41.18
2023-02-28T07:40:09.579Z,33.78
2023-02-28T07:43:22.570Z,41.23
2023-02-28T07:46:37.114Z,57.05
2023-02-28T07:49:50.215Z,57.43
2023-02-28T07:53:02.311Z,38.98
2023-02-28T07:56:15.882Z,42.90
2023-02-28T07:59:29.092Z,37.68
2023-02-28T08:05:47.222Z,38.68
2023-02-28T08:12:10.815Z,30.50
2023-02-28T08:15:22.966Z,35.73
2023-02-28T08:18:34.957Z,36.93
2023-02-28T08:21:47.996Z,36.03
2023-02-28T08:24:59.906Z,34.95
2023-02-28T08:28:12.453Z,27.40
2023-02-28T08:31:25.893Z,33.43
2023-02-28T08:34:37.858Z,30.15
2023-02-28T08:37:50.115Z,29.40
2023-02-28T08:41:10.001Z,29.20
2023-02-28T08:44:22.323Z,30.10
2023-02-28T08:47:36.171Z,24.20
2023-02-28T08:50:55.795Z,19.03
2023-02-28T08:54:04.445Z,19.60
2023-02-28T08:57:16.499Z,21.15
2023-02-28T09:00:31.925Z,15.58
2023-02-28T09:03:44.354Z,14.38
2023-02-28T09:06:56.356Z,14.00
2023-02-28T09:10:08.915Z,10.68
2023-02-28T09:13:20.887Z,12.30
2023-02-28T09:16:33.796Z,12.55
2023-02-28T09:19:46.303Z,10.50
2023-02-28T09:22:58.352Z,11.10
2023-02-28T09:26:11.260Z,14.98
2023-02-28T09:29:23.301Z,11.03
2023-02-28T09:32:35.311Z,9.73
2023-02-28T09:35:48.017Z,11.78
2023-02-28T09:39:00.116Z,10.73
2023-02-28T09:42:17.991Z,9.65
2023-02-28T09:45:35.019Z,12.05
2023-02-28T09:52:08.687Z,14.65
2023-02-28T09:55:35.046Z,11.23
2023-02-28T09:58:50.834Z,10.58
2023-02-28T10:02:09.946Z,13.00
2023-02-28T10:05:24.426Z,11.70
2023-02-28T10:08:42.368Z,14.13
2023-02-28T10:11:58.911Z,11.08
2023-02-28T10:15:15.647Z,13.63
2023-02-28T10:18:32.426Z,14.25
2023-02-28T10:21:48.438Z,11.38
2023-02-28T10:25:05.992Z,11.58
2023-02-28T10:28:23.572Z,10.38
2023-02-28T10:31:36.402Z,13.73
2023-02-28T10:34:48.530Z,13.23
2023-02-28T10:38:05.054Z,11.65
2023-02-28T10:41:19.950Z,10.55
2023-02-28T10:44:32.454Z,12.03
2023-02-28T10:47:56.804Z,13.60
2023-02-28T10:51:11.391Z,12.23
2023-02-28T10:54:30.488Z,13.00
2023-02-28T10:57:42.783Z,13.80
2023-02-28T11:00:55.618Z,11.43
2023-02-28T11:04:08.504Z,11.90
2023-02-28T11:07:37.357Z,12.93
2023-02-28T11:10:43.257Z,12.20
2023-02-28T11:13:59.495Z,12.98
2023-02-28T11:17:24.445Z,16.27
2023-02-28T11:20:40.231Z,12.18
2023-02-28T11:23:53.059Z,15.90
2023-02-28T11:27:05.355Z,14.93
2023-02-28T11:30:36.599Z,11.25
2023-02-28T11:33:52.964Z,10.25
2023-02-28T11:37:07.580Z,12.40
2023-02-28T11:40:24.598Z,10.45
2023-02-28T11:46:59.984Z,12.30
2023-02-28T11:50:42.015Z,9.43
2023-02-28T11:54:18.240Z,12.45
2023-02-28T11:57:44.232Z,11.58
2023-02-28T12:01:12.482Z,13.65
2023-02-28T12:04:34.654Z,26.85
2023-02-28T12:07:58.626Z,10.28
2023-02-28T12:11:18.306Z,11.00
2023-02-28T12:15:02.371Z,9.55
2023-02-28T12:18:27.041Z,9.03
2023-02-28T12:21:54.076Z,9.70
2023-02-28T12:25:48.027Z,12.73
2023-02-28T12:29:04.994Z,10.08
2023-02-28T12:32:22.734Z,11.88
2023-02-28T12:35:40.112Z,10.78
2023-02-28T12:38:56.916Z,7.95
2023-02-28T12:42:15.478Z,12.93
2023-02-28T12:45:30.385Z,10.05
2023-02-28T12:48:48.479Z,12.98
2023-02-28T12:52:00.924Z,11.10
2023-02-28T12:55:20.171Z,15.63
2023-02-28T12:58:37.567Z,11.10
2023-02-28T13:02:05.790Z,12.90
2023-02-28T13:06:02.344Z,9.90
2023-02-28T13:09:18.379Z,9.48
2023-02-28T13:12:31.132Z,14.00
2023-02-28T13:15:46.014Z,9.48
2023-02-28T13:18:58.168Z,11.85
2023-02-28T13:22:13.596Z,12.48
2023-02-28T13:26:02.385Z,12.78
2023-02-28T13:29:37.339Z,10.63
2023-02-28T13:32:49.370Z,9.90
2023-02-28T13:36:19.457Z,12.98
2023-02-28T13:39:56.879Z,11.75
2023-02-28T13:43:11.525Z,10.48
2023-02-28T13:46:24.127Z,11.68
2023-02-28T13:49:37.519Z,10.45
2023-02-28T13:53:00.099Z,12.20
2023-02-28T13:56:27.532Z,14.23
2023-02-28T13:59:46.833Z,9.98
2023-02-28T14:03:29.983Z,12.48
2023-02-28T14:06:43.768Z,15.20
2023-02-28T14:10:05.004Z,10.60
2023-02-28T14:13:46.132Z,10.98
2023-02-28T14:17:01.617Z,24.55
2023-02-28T14:20:24.350Z,16.08
2023-02-28T14:24:12.839Z,13.55
2023-02-28T14:27:48.301Z,12.53
2023-02-28T14:31:10.804Z,13.10
2023-02-28T14:34:44.806Z,12.75
2023-02-28T14:37:57.476Z,12.28
2023-02-28T14:41:17.733Z,11.53
2023-02-28T14:44:33.004Z,14.60
2023-02-28T14:47:45.285Z,13.68
2023-02-28T14:51:04.446Z,13.33
2023-02-28T14:54:25.040Z,14.20
2023-02-28T14:57:39.851Z,13.40
2023-02-28T15:00:59.425Z,32.58
2023-02-28T15:04:19.835Z,39.48
2023-02-28T15:07:35.060Z,20.38
2023-02-28T15:10:49.779Z,16.25
2023-02-28T15:14:03.402Z,23.55
2023-02-28T15:17:22.779Z,19.68
2023-02-28T15:20:35.551Z,16.58
2023-02-28T15:23:52.212Z,15.35
2023-02-28T15:27:08.633Z,17.50
2023-02-28T15:30:28.363Z,15.83
2023-02-28T15:33:41.352Z,14.80
2023-02-28T15:36:53.891Z,15.50
2023-02-28T15:40:17.202Z,13.13
2023-02-28T15:43:35.866Z,13.70
2023-02-28T15:46:50.811Z,18.28
2023-02-28T15:50:06.686Z,16.65
2023-02-28T15:53:29.954Z,19.13
2023-02-28T15:56:48.076Z,21.45
2023-02-28T16:00:05.396Z,16.35
2023-02-28T16:03:45.984Z,19.10
2023-02-28T16:07:17.512Z,18.03
2023-02-28T16:10:32.195Z,18.75
2023-02-28T16:13:44.245Z,17.65
2023-02-28T16:16:59.820Z,17.83
2023-02-28T16:20:20.409Z,21.93
2023-02-28T16:23:32.396Z,16.28
2023-02-28T16:26:47.139Z,18.33
2023-02-28T16:30:00.703Z,18.45
2023-02-28T16:33:15.116Z,28.23
2023-02-28T16:36:30.313Z,20.28
2023-02-28T16:39:42.766Z,22.85
2023-02-28T16:42:57.896Z,20.05
2023-02-28T16:46:10.078Z,21.13
2023-02-28T16:49:22.263Z,26.25
2023-02-28T16:52:34.294Z,23.88
2023-02-28T16:55:48.297Z,24.15
2023-02-28T16:59:03.586Z,21.18
2023-02-28T17:02:20.888Z,20.45
2023-02-28T17:05:37.260Z,20.08
2023-02-28T17:08:49.420Z,19.53
2023-02-28T17:12:01.724Z,23.25
2023-02-28T17:15:18.042Z,23.70
2023-02-28T17:18:32.770Z,18.83
2023-02-28T17:21:46.961Z,18.10
2023-02-28T17:25:00.650Z,21.28
2023-02-28T17:28:13.813Z,27.20
2023-02-28T17:31:26.070Z,22.58
2023-02-28T17:34:38.260Z,18.93
2023-02-28T17:37:50.885Z,23.90
2023-02-28T17:41:02.996Z,24.55
2023-02-28T17:44:15.399Z,27.40
2023-02-28T17:47:27.519Z,29.23
2023-02-28T17:50:39.695Z,35.10
2023-02-28T17:53:52.050Z,33.00
2023-02-28T17:57:04.128Z,26.28
2023-02-28T18:00:23.931Z,26.05
2023-02-28T18:03:36.037Z,33.10
2023-02-28T18:06:53.493Z,29.18
2023-02-28T18:10:05.636Z,33.75
2023-02-28T18:13:17.800Z,28.63
2023-02-28T18:16:30.242Z,32.93
2023-02-28T18:19:42.626Z,30.60
2023-02-28T18:22:54.849Z,24.85
2023-02-28T18:26:06.867Z,22.00
2023-02-28T18:29:24.218Z,30.85
2023-02-28T18:32:37.032Z,30.18
2023-02-28T18:35:49.070Z,34.58
2023-02-28T18:39:01.463Z,33.20
2023-02-28T18:42:13.618Z,35.88
2023-02-28T18:45:25.900Z,39.63
2023-02-28T18:48:38.431Z,43.90
2023-02-28T18:51:50.739Z,37.45
2023-02-28T18:55:02.712Z,50.03
2023-02-28T18:58:15.097Z,53.63
2023-02-28T19:01:32.094Z,42.70
2023-02-28T19:04:46.671Z,50.13
2023-02-28T19:07:58.711Z,48.50
2023-02-28T19:11:18.062Z,46.28
2023-02-28T19:18:10.642Z,47.78
2023-02-28T19:21:40.826Z,54.00
2023-02-28T19:24:52.928Z,56.28
2023-02-28T19:28:06.928Z,58.18
2023-02-28T19:31:24.886Z,52.58
2023-02-28T19:34:38.775Z,51.70
2023-02-28T19:37:52.746Z,55.03
2023-02-28T19:41:14.832Z,55.05
2023-02-28T19:44:26.882Z,64.33
2023-02-28T19:47:40.758Z,60.20
2023-02-28T19:50:52.704Z,58.00
2023-02-28T19:54:05.061Z,55.05
2023-02-28T19:57:17.193Z,51.13
2023-02-28T20:00:29.968Z,64.28
2023-02-28T20:03:42.267Z,64.65
2023-02-28T20:06:54.692Z,116.20
2023-02-28T20:10:06.993Z,63.63
2023-02-28T20:13:20.705Z,63.95
2023-02-28T20:16:35.007Z,63.60
2023-02-28T20:19:47.473Z,63.83
2023-02-28T20:22:59.819Z,59.50
2023-02-28T20:26:12.188Z,61.65
2023-02-28T20:29:24.596Z,60.05
2023-02-28T20:32:39.155Z,57.08
2023-02-28T20:35:52.944Z,64.90
2023-02-28T20:39:05.092Z,64.28
2023-02-28T20:42:17.410Z,70.60
2023-02-28T20:45:29.973Z,74.35
2023-02-28T20:48:43.062Z,80.22
2023-02-28T20:51:55.473Z,71.60
2023-02-28T20:55:07.990Z,62.75
2023-02-28T20:58:20.502Z,52.43
2023-02-28T21:01:34.516Z,65.83
2023-02-28T21:04:46.923Z,63.23
2023-02-28T21:07:59.050Z,50.90
2023-02-28T21:11:17.574Z,57.88
2023-02-28T21:14:31.886Z,65.95
2023-02-28T21:17:44.204Z,58.85
2023-02-28T21:20:56.699Z,63.48
2023-02-28T21:24:09.728Z,56.20
2023-02-28T21:27:21.937Z,50.88
2023-02-28T21:30:34.453Z,59.00
2023-02-28T21:33:47.372Z,54.63
2023-02-28T21:36:59.782Z,60.65
2023-02-28T21:40:14.959Z,60.90
2023-02-28T21:43:27.173Z,59.88
2023-02-28T21:46:39.480Z,57.95
2023-02-28T21:49:51.778Z,58.60
2023-02-28T21:53:03.909Z,54.65
2023-02-28T21:56:21.119Z,56.45
2023-02-28T21:59:33.639Z,52.98
2023-02-28T22:02:46.120Z,51.08
2023-02-28T22:05:58.653Z,58.78
2023-02-28T22:09:14.252Z,57.08
2023-02-28T22:12:27.101Z,52.70
2023-02-28T22:15:41.803Z,63.75
2023-02-28T22:18:54.751Z,61.70
2023-02-28T22:22:07.181Z,63.13
2023-02-28T22:25:20.168Z,59.20
2023-02-28T22:28:33.016Z,58.93
2023-02-28T22:31:45.341Z,57.15
2023-02-28T22:34:59.660Z,60.80
2023-02-28T22:38:11.875Z,60.73
2023-02-28T22:41:26.681Z,58.58
2023-02-28T22:44:39.055Z,71.28
2023-02-28T22:47:53.851Z,58.23
2023-02-28T22:51:15.129Z,57.33
2023-02-28T22:54:27.747Z,64.65
2023-02-28T22:57:40.315Z,62.10
2023-02-28T23:00:54.879Z,60.10
2023-02-28T23:04:07.352Z,62.30
2023-02-28T23:07:21.501Z,58.63
2023-02-28T23:10:33.694Z,55.38
2023-02-28T23:13:47.846Z,60.10
2023-02-28T23:17:01.029Z,61.03
2023-02-28T23:20:16.482Z,52.55
2023-02-28T23:23:28.660Z,63.15
2023-02-28T23:26:41.941Z,62.10
2023-02-28T23:29:54.199Z,57.28
2023-02-28T23:33:06.209Z,56.33
2023-02-28T23:36:21.284Z,55.20
2023-02-28T23:39:35.431Z,53.93
2023-02-28T23:42:47.431Z,58.08
2023-02-28T23:46:04.139Z,54.85
2023-02-28T23:49:16.450Z,53.80
2023-02-28T23:52:29.990Z,55.38
2023-02-28T23:55:41.995Z,54.93
2023-02-28T23:58:55.326Z,65.30
